sensor_id;sensor_type;location;lat;lon;timestamp;P1;durP1;ratioP1;P2;durP2;ratioP2
13255;SDS011;37913;48.370;10.930;2022-11-15T00:02:25;89.07;;;39.03;;
13255;SDS011;37913;48.370;10.930;2022-11-15T00:04:52;98.00;;;40.27;;
13255;SDS011;37913;48.370;10.930;2022-11-15T00:07:19;85.77;;;38.20;;
13255;SDS011;37913;48.370;10.930;2022-11-15T00:09:46;87.50;;;39.00;;
13255;SDS011;37913;48.370;10.930;2022-11-15T00:12:13;87.33;;;38.33;;
13255;SDS011;37913;48.370;10.930;2022-11-15T00:14:40;91.00;;;39.13;;
13255;SDS011;37913;48.370;10.930;2022-11-15T00:17:07;92.03;;;38.77;;
13255;SDS011;37913;48.370;10.930;2022-11-15T00:19:36;85.95;;;37.35;;
13255;SDS011;37913;48.370;10.930;2022-11-15T00:22:03;85.83;;;38.90;;
13255;SDS011;37913;48.370;10.930;2022-11-15T00:24:30;86.83;;;38.30;;
13255;SDS011;37913;48.370;10.930;2022-11-15T00:26:57;90.40;;;38.97;;
13255;SDS011;37913;48.370;10.930;2022-11-15T00:29:24;83.10;;;37.30;;
13255;SDS011;37913;48.370;10.930;2022-11-15T00:31:51;91.53;;;38.97;;
13255;SDS011;37913;48.370;10.930;2022-11-15T00:34:18;91.13;;;38.60;;
13255;SDS011;37913;48.370;10.930;2022-11-15T00:36:46;82.30;;;37.50;;
13255;SDS011;37913;48.370;10.930;2022-11-15T00:39:13;82.07;;;37.47;;
13255;SDS011;37913;48.370;10.930;2022-11-15T00:41:40;91.00;;;38.93;;
13255;SDS011;37913;48.370;10.930;2022-11-15T00:44:07;83.47;;;38.03;;
13255;SDS011;37913;48.370;10.930;2022-11-15T00:46:34;85.50;;;37.70;;
13255;SDS011;37913;48.370;10.930;2022-11-15T00:49:01;77.63;;;36.03;;
13255;SDS011;37913;48.370;10.930;2022-11-15T00:51:28;85.17;;;37.93;;
13255;SDS011;37913;48.370;10.930;2022-11-15T00:53:57;94.30;;;39.03;;
13255;SDS011;37913;48.370;10.930;2022-11-15T00:56:24;83.60;;;37.17;;
13255;SDS011;37913;48.370;10.930;2022-11-15T00:58:52;84.00;;;37.13;;
13255;SDS011;37913;48.370;10.930;2022-11-15T01:01:19;85.43;;;38.30;;
13255;SDS011;37913;48.370;10.930;2022-11-15T01:03:46;84.80;;;37.63;;
13255;SDS011;37913;48.370;10.930;2022-11-15T01:06:13;81.97;;;37.13;;
13255;SDS011;37913;48.370;10.930;2022-11-15T01:08:40;82.70;;;37.63;;
13255;SDS011;37913;48.370;10.930;2022-11-15T01:11:09;88.03;;;38.03;;
13255;SDS011;37913;48.370;10.930;2022-11-15T01:13:38;93.47;;;39.47;;
13255;SDS011;37913;48.370;10.930;2022-11-15T01:16:06;86.90;;;37.97;;
13255;SDS011;37913;48.370;10.930;2022-11-15T01:18:34;87.23;;;37.87;;
13255;SDS011;37913;48.370;10.930;2022-11-15T01:21:04;85.87;;;37.47;;
13255;SDS011;37913;48.370;10.930;2022-11-15T01:23:32;85.60;;;37.53;;
13255;SDS011;37913;48.370;10.930;2022-11-15T01:26:00;87.60;;;38.17;;
13255;SDS011;37913;48.370;10.930;2022-11-15T01:28:30;85.20;;;38.30;;
13255;SDS011;37913;48.370;10.930;2022-11-15T01:30:58;86.17;;;37.50;;
13255;SDS011;37913;48.370;10.930;2022-11-15T01:33:25;89.87;;;38.20;;
13255;SDS011;37913;48.370;10.930;2022-11-15T01:35:53;83.00;;;37.20;;
13255;SDS011;37913;48.370;10.930;2022-11-15T01:38:20;83.57;;;37.57;;
13255;SDS011;37913;48.370;10.930;2022-11-15T01:40:47;84.83;;;37.73;;
13255;SDS011;37913;48.370;10.930;2022-11-15T01:43:21;87.33;;;37.90;;
13255;SDS011;37913;48.370;10.930;2022-11-15T01:45:51;84.03;;;37.13;;
13255;SDS011;37913;48.370;10.930;2022-11-15T01:48:21;88.83;;;36.90;;
13255;SDS011;37913;48.370;10.930;2022-11-15T01:50:51;83.23;;;37.47;;
13255;SDS011;37913;48.370;10.930;2022-11-15T01:53:19;82.40;;;36.87;;
13255;SDS011;37913;48.370;10.930;2022-11-15T01:55:49;80.97;;;36.43;;
13255;SDS011;37913;48.370;10.930;2022-11-15T01:58:16;71.57;;;34.47;;
13255;SDS011;37913;48.370;10.930;2022-11-15T02:00:43;83.40;;;36.70;;
13255;SDS011;37913;48.370;10.930;2022-11-15T02:03:13;81.13;;;36.00;;
13255;SDS011;37913;48.370;10.930;2022-11-15T02:05:41;84.47;;;37.13;;
13255;SDS011;37913;48.370;10.930;2022-11-15T02:08:08;82.90;;;36.57;;
13255;SDS011;37913;48.370;10.930;2022-11-15T02:10:44;86.57;;;36.87;;
13255;SDS011;37913;48.370;10.930;2022-11-15T02:13:11;83.10;;;36.53;;
13255;SDS011;37913;48.370;10.930;2022-11-15T02:15:40;87.43;;;37.47;;
13255;SDS011;37913;48.370;10.930;2022-11-15T02:18:18;79.47;;;36.43;;
13255;SDS011;37913;48.370;10.930;2022-11-15T02:20:57;82.60;;;36.63;;
13255;SDS011;37913;48.370;10.930;2022-11-15T02:26:46;87.27;;;37.30;;
13255;SDS011;37913;48.370;10.930;2022-11-15T02:29:57;77.10;;;35.30;;
13255;SDS011;37913;48.370;10.930;2022-11-15T02:32:56;69.73;;;34.37;;
13255;SDS011;37913;48.370;10.930;2022-11-15T02:35:28;83.40;;;36.50;;
13255;SDS011;37913;48.370;10.930;2022-11-15T02:38:04;85.47;;;37.10;;
13255;SDS011;37913;48.370;10.930;2022-11-15T02:40:38;82.33;;;36.67;;
13255;SDS011;37913;48.370;10.930;2022-11-15T02:43:08;84.83;;;37.20;;
13255;SDS011;37913;48.370;10.930;2022-11-15T02:45:56;83.77;;;37.87;;
13255;SDS011;37913;48.370;10.930;2022-11-15T02:48:29;82.07;;;36.73;;
13255;SDS011;37913;48.370;10.930;2022-11-15T02:50:58;89.10;;;38.40;;
13255;SDS011;37913;48.370;10.930;2022-11-15T02:53:26;87.83;;;38.20;;
13255;SDS011;37913;48.370;10.930;2022-11-15T02:55:54;81.00;;;36.57;;
13255;SDS011;37913;48.370;10.930;2022-11-15T02:58:35;90.80;;;38.53;;
13255;SDS011;37913;48.370;10.930;2022-11-15T03:01:15;86.73;;;37.17;;
13255;SDS011;37913;48.370;10.930;2022-11-15T03:03:59;79.93;;;36.70;;
13255;SDS011;37913;48.370;10.930;2022-11-15T03:06:37;84.23;;;37.20;;
13255;SDS011;37913;48.370;10.930;2022-11-15T03:09:12;88.93;;;47.50;;
13255;SDS011;37913;48.370;10.930;2022-11-15T03:11:48;85.47;;;41.93;;
13255;SDS011;37913;48.370;10.930;2022-11-15T03:14:23;89.20;;;44.37;;
13255;SDS011;37913;48.370;10.930;2022-11-15T03:16:57;90.30;;;45.40;;
13255;SDS011;37913;48.370;10.930;2022-11-15T03:19:31;83.37;;;36.53;;
13255;SDS011;37913;48.370;10.930;2022-11-15T03:22:02;87.57;;;38.40;;
13255;SDS011;37913;48.370;10.930;2022-11-15T03:24:34;85.37;;;37.03;;
13255;SDS011;37913;48.370;10.930;2022-11-15T03:27:04;80.63;;;36.03;;
13255;SDS011;37913;48.370;10.930;2022-11-15T03:29:34;76.30;;;35.27;;
13255;SDS011;37913;48.370;10.930;2022-11-15T03:32:06;87.17;;;37.47;;
13255;SDS011;37913;48.370;10.930;2022-11-15T03:34:41;82.30;;;36.30;;
13255;SDS011;37913;48.370;10.930;2022-11-15T03:37:11;81.57;;;36.47;;
13255;SDS011;37913;48.370;10.930;2022-11-15T03:39:40;76.20;;;35.50;;
13255;SDS011;37913;48.370;10.930;2022-11-15T03:42:10;82.57;;;36.80;;
13255;SDS011;37913;48.370;10.930;2022-11-15T03:44:46;97.23;;;38.67;;
13255;SDS011;37913;48.370;10.930;2022-11-15T03:47:20;76.73;;;35.20;;
13255;SDS011;37913;48.370;10.930;2022-11-15T03:49:53;87.60;;;37.93;;
13255;SDS011;37913;48.370;10.930;2022-11-15T03:52:25;94.13;;;38.93;;
13255;SDS011;37913;48.370;10.930;2022-11-15T03:54:53;101.00;;;38.60;;
13255;SDS011;37913;48.370;10.930;2022-11-15T03:57:21;83.73;;;35.97;;
13255;SDS011;37913;48.370;10.930;2022-11-15T03:59:48;82.87;;;36.83;;
13255;SDS011;37913;48.370;10.930;2022-11-15T04:02:15;85.27;;;37.43;;
13255;SDS011;37913;48.370;10.930;2022-11-15T04:04:42;88.90;;;37.93;;
13255;SDS011;37913;48.370;10.930;2022-11-15T04:07:11;84.10;;;37.03;;
13255;SDS011;37913;48.370;10.930;2022-11-15T04:09:38;90.57;;;38.30;;
13255;SDS011;37913;48.370;10.930;2022-11-15T04:12:24;84.90;;;37.37;;
13255;SDS011;37913;48.370;10.930;2022-11-15T04:14:57;97.47;;;38.50;;
13255;SDS011;37913;48.370;10.930;2022-11-15T04:17:35;94.90;;;38.83;;
13255;SDS011;37913;48.370;10.930;2022-11-15T04:20:03;84.57;;;36.53;;
13255;SDS011;37913;48.370;10.930;2022-11-15T04:22:51;82.17;;;36.33;;
13255;SDS011;37913;48.370;10.930;2022-11-15T04:25:36;80.67;;;35.40;;
13255;SDS011;37913;48.370;10.930;2022-11-15T04:28:03;89.63;;;38.40;;
13255;SDS011;37913;48.370;10.930;2022-11-15T04:30:30;85.93;;;37.83;;
13255;SDS011;37913;48.370;10.930;2022-11-15T04:32:57;73.60;;;34.57;;
13255;SDS011;37913;48.370;10.930;2022-11-15T04:35:24;83.43;;;36.20;;
13255;SDS011;37913;48.370;10.930;2022-11-15T04:37:52;74.50;;;34.67;;
13255;SDS011;37913;48.370;10.930;2022-11-15T04:40:18;70.73;;;34.07;;
13255;SDS011;37913;48.370;10.930;2022-11-15T04:42:45;79.63;;;35.23;;
13255;SDS011;37913;48.370;10.930;2022-11-15T04:45:12;89.93;;;38.17;;
13255;SDS011;37913;48.370;10.930;2022-11-15T04:47:39;83.23;;;36.80;;
13255;SDS011;37913;48.370;10.930;2022-11-15T04:50:06;97.20;;;39.77;;
13255;SDS011;37913;48.370;10.930;2022-11-15T04:52:35;82.33;;;36.23;;
13255;SDS011;37913;48.370;10.930;2022-11-15T04:55:03;86.53;;;40.83;;
13255;SDS011;37913;48.370;10.930;2022-11-15T04:57:30;86.93;;;37.10;;
13255;SDS011;37913;48.370;10.930;2022-11-15T04:59:57;86.90;;;41.70;;
13255;SDS011;37913;48.370;10.930;2022-11-15T05:02:24;86.93;;;37.03;;
13255;SDS011;37913;48.370;10.930;2022-11-15T05:05:11;88.70;;;37.77;;
13255;SDS011;37913;48.370;10.930;2022-11-15T05:07:37;86.10;;;37.93;;
13255;SDS011;37913;48.370;10.930;2022-11-15T05:10:06;94.13;;;39.20;;
13255;SDS011;37913;48.370;10.930;2022-11-15T05:12:34;90.70;;;37.53;;
13255;SDS011;37913;48.370;10.930;2022-11-15T05:15:01;99.77;;;41.07;;
13255;SDS011;37913;48.370;10.930;2022-11-15T05:17:28;93.33;;;39.57;;
13255;SDS011;37913;48.370;10.930;2022-11-15T05:19:55;97.57;;;40.10;;
13255;SDS011;37913;48.370;10.930;2022-11-15T05:22:22;97.13;;;40.83;;
13255;SDS011;37913;48.370;10.930;2022-11-15T05:24:49;94.80;;;38.83;;
13255;SDS011;37913;48.370;10.930;2022-11-15T05:27:17;85.97;;;37.63;;
13255;SDS011;37913;48.370;10.930;2022-11-15T05:29:44;83.87;;;37.57;;
13255;SDS011;37913;48.370;10.930;2022-11-15T05:32:11;74.67;;;35.20;;
13255;SDS011;37913;48.370;10.930;2022-11-15T05:34:39;83.87;;;36.50;;
13255;SDS011;37913;48.370;10.930;2022-11-15T05:37:06;92.03;;;38.57;;
13255;SDS011;37913;48.370;10.930;2022-11-15T05:39:33;100.03;;;41.50;;
13255;SDS011;37913;48.370;10.930;2022-11-15T05:42:01;91.43;;;41.47;;
13255;SDS011;37913;48.370;10.930;2022-11-15T05:44:34;97.77;;;39.87;;
13255;SDS011;37913;48.370;10.930;2022-11-15T05:47:03;86.57;;;37.47;;
13255;SDS011;37913;48.370;10.930;2022-11-15T05:49:33;91.27;;;49.40;;
13255;SDS011;37913;48.370;10.930;2022-11-15T05:52:02;88.23;;;38.03;;
13255;SDS011;37913;48.370;10.930;2022-11-15T05:54:31;89.47;;;38.03;;
13255;SDS011;37913;48.370;10.930;2022-11-15T05:56:59;86.60;;;38.03;;
13255;SDS011;37913;48.370;10.930;2022-11-15T05:59:27;94.13;;;38.03;;
13255;SDS011;37913;48.370;10.930;2022-11-15T06:01:56;93.20;;;38.93;;
13255;SDS011;37913;48.370;10.930;2022-11-15T06:04:24;79.60;;;36.57;;
13255;SDS011;37913;48.370;10.930;2022-11-15T06:06:51;85.43;;;37.63;;
13255;SDS011;37913;48.370;10.930;2022-11-15T06:09:18;84.90;;;36.63;;
13255;SDS011;37913;48.370;10.930;2022-11-15T06:11:45;83.87;;;36.67;;
13255;SDS011;37913;48.370;10.930;2022-11-15T06:14:12;87.40;;;37.27;;
13255;SDS011;37913;48.370;10.930;2022-11-15T06:16:39;91.00;;;39.07;;
13255;SDS011;37913;48.370;10.930;2022-11-15T06:19:08;86.33;;;37.23;;
13255;SDS011;37913;48.370;10.930;2022-11-15T06:21:34;82.47;;;36.10;;
13255;SDS011;37913;48.370;10.930;2022-11-15T06:24:01;82.77;;;36.07;;
13255;SDS011;37913;48.370;10.930;2022-11-15T06:26:29;90.83;;;37.90;;
13255;SDS011;37913;48.370;10.930;2022-11-15T06:28:56;81.97;;;36.53;;
13255;SDS011;37913;48.370;10.930;2022-11-15T06:31:23;81.67;;;36.53;;
13255;SDS011;37913;48.370;10.930;2022-11-15T06:33:50;93.00;;;38.60;;
13255;SDS011;37913;48.370;10.930;2022-11-15T06:36:18;87.57;;;37.37;;
13255;SDS011;37913;48.370;10.930;2022-11-15T06:38:45;78.53;;;35.47;;
13255;SDS011;37913;48.370;10.930;2022-11-15T06:41:13;83.17;;;36.67;;
13255;SDS011;37913;48.370;10.930;2022-11-15T06:43:41;84.53;;;37.70;;
13255;SDS011;37913;48.370;10.930;2022-11-15T06:46:08;87.63;;;37.70;;
13255;SDS011;37913;48.370;10.930;2022-11-15T06:48:36;84.93;;;36.97;;
13255;SDS011;37913;48.370;10.930;2022-11-15T06:51:03;84.57;;;36.93;;
13255;SDS011;37913;48.370;10.930;2022-11-15T06:53:32;94.90;;;38.37;;
13255;SDS011;37913;48.370;10.930;2022-11-15T06:55:59;107.20;;;42.60;;
13255;SDS011;37913;48.370;10.930;2022-11-15T06:58:27;94.10;;;39.17;;
13255;SDS011;37913;48.370;10.930;2022-11-15T07:00:57;89.17;;;38.13;;
13255;SDS011;37913;48.370;10.930;2022-11-15T07:03:25;92.27;;;45.70;;
13255;SDS011;37913;48.370;10.930;2022-11-15T07:05:53;87.03;;;39.27;;
13255;SDS011;37913;48.370;10.930;2022-11-15T07:08:21;95.33;;;39.90;;
13255;SDS011;37913;48.370;10.930;2022-11-15T07:10:50;89.93;;;40.10;;
13255;SDS011;37913;48.370;10.930;2022-11-15T07:13:17;99.43;;;41.67;;
13255;SDS011;37913;48.370;10.930;2022-11-15T07:15:43;120.20;;;53.57;;
13255;SDS011;37913;48.370;10.930;2022-11-15T07:18:10;99.57;;;45.77;;
13255;SDS011;37913;48.370;10.930;2022-11-15T07:20:37;96.77;;;43.80;;
13255;SDS011;37913;48.370;10.930;2022-11-15T07:23:04;146.93;;;63.00;;
13255;SDS011;37913;48.370;10.930;2022-11-15T07:25:31;111.83;;;51.73;;
13255;SDS011;37913;48.370;10.930;2022-11-15T07:28:00;105.27;;;46.67;;
13255;SDS011;37913;48.370;10.930;2022-11-15T07:30:28;91.43;;;46.43;;
13255;SDS011;37913;48.370;10.930;2022-11-15T07:32:56;102.70;;;43.90;;
13255;SDS011;37913;48.370;10.930;2022-11-15T07:35:23;96.27;;;45.43;;
13255;SDS011;37913;48.370;10.930;2022-11-15T07:37:53;89.93;;;40.17;;
13255;SDS011;37913;48.370;10.930;2022-11-15T07:40:21;93.83;;;41.83;;
13255;SDS011;37913;48.370;10.930;2022-11-15T07:42:48;101.97;;;42.77;;
13255;SDS011;37913;48.370;10.930;2022-11-15T07:45:20;97.90;;;43.07;;
13255;SDS011;37913;48.370;10.930;2022-11-15T07:47:47;107.67;;;45.27;;
13255;SDS011;37913;48.370;10.930;2022-11-15T07:50:14;108.22;;;44.90;;
13255;SDS011;37913;48.370;10.930;2022-11-15T07:52:41;100.00;;;45.00;;
13255;SDS011;37913;48.370;10.930;2022-11-15T07:55:09;99.13;;;45.05;;
13255;SDS011;37913;48.370;10.930;2022-11-15T07:57:36;98.85;;;48.20;;
13255;SDS011;37913;48.370;10.930;2022-11-15T08:00:04;107.70;;;47.15;;
13255;SDS011;37913;48.370;10.930;2022-11-15T08:02:33;107.53;;;50.83;;
13255;SDS011;37913;48.370;10.930;2022-11-15T08:05:00;121.07;;;55.47;;
13255;SDS011;37913;48.370;10.930;2022-11-15T08:07:28;114.50;;;55.75;;
13255;SDS011;37913;48.370;10.930;2022-11-15T08:09:55;128.27;;;61.15;;
13255;SDS011;37913;48.370;10.930;2022-11-15T08:12:22;125.15;;;60.13;;
13255;SDS011;37913;48.370;10.930;2022-11-15T08:14:49;158.20;;;79.75;;
13255;SDS011;37913;48.370;10.930;2022-11-15T08:17:16;134.07;;;73.93;;
13255;SDS011;37913;48.370;10.930;2022-11-15T08:19:44;122.95;;;62.40;;
13255;SDS011;37913;48.370;10.930;2022-11-15T08:22:12;108.95;;;56.78;;
13255;SDS011;37913;48.370;10.930;2022-11-15T08:24:39;98.72;;;49.15;;
13255;SDS011;37913;48.370;10.930;2022-11-15T08:27:05;90.82;;;40.63;;
13255;SDS011;37913;48.370;10.930;2022-11-15T08:29:41;96.25;;;42.75;;
13255;SDS011;37913;48.370;10.930;2022-11-15T08:32:08;89.63;;;40.08;;
13255;SDS011;37913;48.370;10.930;2022-11-15T08:34:36;93.85;;;40.85;;
13255;SDS011;37913;48.370;10.930;2022-11-15T08:37:04;92.75;;;42.35;;
13255;SDS011;37913;48.370;10.930;2022-11-15T08:39:31;101.68;;;42.53;;
13255;SDS011;37913;48.370;10.930;2022-11-15T08:41:58;89.22;;;40.13;;
13255;SDS011;37913;48.370;10.930;2022-11-15T08:44:25;91.68;;;39.55;;
13255;SDS011;37913;48.370;10.930;2022-11-15T08:46:52;88.72;;;39.92;;
13255;SDS011;37913;48.370;10.930;2022-11-15T08:49:19;98.15;;;41.40;;
13255;SDS011;37913;48.370;10.930;2022-11-15T08:51:46;90.15;;;41.00;;
13255;SDS011;37913;48.370;10.930;2022-11-15T08:54:14;83.88;;;36.95;;
13255;SDS011;37913;48.370;10.930;2022-11-15T08:56:41;82.45;;;37.45;;
13255;SDS011;37913;48.370;10.930;2022-11-15T08:59:08;81.07;;;36.60;;
13255;SDS011;37913;48.370;10.930;2022-11-15T09:01:35;85.07;;;37.40;;
13255;SDS011;37913;48.370;10.930;2022-11-15T09:04:02;83.88;;;36.95;;
13255;SDS011;37913;48.370;10.930;2022-11-15T09:06:30;89.43;;;38.35;;
13255;SDS011;37913;48.370;10.930;2022-11-15T09:08:57;85.57;;;37.55;;
13255;SDS011;37913;48.370;10.930;2022-11-15T09:11:25;80.30;;;36.25;;
13255;SDS011;37913;48.370;10.930;2022-11-15T09:13:52;89.28;;;38.40;;
13255;SDS011;37913;48.370;10.930;2022-11-15T09:16:19;93.75;;;39.90;;
13255;SDS011;37913;48.370;10.930;2022-11-15T09:18:46;87.70;;;38.88;;
13255;SDS011;37913;48.370;10.930;2022-11-15T09:21:13;79.45;;;37.45;;
13255;SDS011;37913;48.370;10.930;2022-11-15T09:23:40;91.05;;;39.63;;
13255;SDS011;37913;48.370;10.930;2022-11-15T09:26:07;87.88;;;38.15;;
13255;SDS011;37913;48.370;10.930;2022-11-15T09:28:35;83.55;;;37.88;;
13255;SDS011;37913;48.370;10.930;2022-11-15T09:31:03;89.75;;;39.35;;
13255;SDS011;37913;48.370;10.930;2022-11-15T09:33:31;98.05;;;42.45;;
13255;SDS011;37913;48.370;10.930;2022-11-15T09:36:02;85.43;;;38.75;;
13255;SDS011;37913;48.370;10.930;2022-11-15T09:38:31;86.78;;;38.83;;
13255;SDS011;37913;48.370;10.930;2022-11-15T09:44:05;104.38;;;45.72;;
13255;SDS011;37913;48.370;10.930;2022-11-15T09:46:44;93.53;;;41.83;;
13255;SDS011;37913;48.370;10.930;2022-11-15T09:49:20;92.07;;;41.92;;
13255;SDS011;37913;48.370;10.930;2022-11-15T09:51:49;97.57;;;43.35;;
13255;SDS011;37913;48.370;10.930;2022-11-15T09:54:21;93.20;;;41.42;;
13255;SDS011;37913;48.370;10.930;2022-11-15T09:56:53;82.55;;;40.30;;
13255;SDS011;37913;48.370;10.930;2022-11-15T09:59:27;90.45;;;40.38;;
13255;SDS011;37913;48.370;10.930;2022-11-15T10:02:17;92.97;;;40.15;;
13255;SDS011;37913;48.370;10.930;2022-11-15T10:04:56;98.13;;;41.28;;
13255;SDS011;37913;48.370;10.930;2022-11-15T10:07:25;86.55;;;39.03;;
13255;SDS011;37913;48.370;10.930;2022-11-15T10:09:58;105.15;;;43.13;;
13255;SDS011;37913;48.370;10.930;2022-11-15T10:12:30;81.05;;;38.97;;
13255;SDS011;37913;48.370;10.930;2022-11-15T10:15:02;101.22;;;42.28;;
13255;SDS011;37913;48.370;10.930;2022-11-15T10:17:45;87.72;;;40.13;;
13255;SDS011;37913;48.370;10.930;2022-11-15T10:20:24;90.68;;;40.38;;
13255;SDS011;37913;48.370;10.930;2022-11-15T10:22:56;85.35;;;38.80;;
13255;SDS011;37913;48.370;10.930;2022-11-15T10:25:26;86.78;;;39.78;;
13255;SDS011;37913;48.370;10.930;2022-11-15T10:27:56;92.85;;;41.65;;
13255;SDS011;37913;48.370;10.930;2022-11-15T10:30:32;89.55;;;41.72;;
13255;SDS011;37913;48.370;10.930;2022-11-15T10:33:08;91.72;;;42.72;;
13255;SDS011;37913;48.370;10.930;2022-11-15T10:38:51;91.47;;;45.22;;
13255;SDS011;37913;48.370;10.930;2022-11-15T10:41:28;100.03;;;50.55;;
13255;SDS011;37913;48.370;10.930;2022-11-15T10:46:47;94.18;;;49.88;;
13255;SDS011;37913;48.370;10.930;2022-11-15T10:49:30;98.07;;;52.47;;
13255;SDS011;37913;48.370;10.930;2022-11-15T10:51:59;101.85;;;54.97;;
13255;SDS011;37913;48.370;10.930;2022-11-15T10:54:30;98.43;;;54.47;;
13255;SDS011;37913;48.370;10.930;2022-11-15T10:57:00;90.35;;;52.72;;
13255;SDS011;37913;48.370;10.930;2022-11-15T10:59:33;96.70;;;54.42;;
13255;SDS011;37913;48.370;10.930;2022-11-15T11:02:20;96.60;;;56.05;;
13255;SDS011;37913;48.370;10.930;2022-11-15T11:04:57;99.38;;;55.40;;
13255;SDS011;37913;48.370;10.930;2022-11-15T11:07:27;102.97;;;57.05;;
13255;SDS011;37913;48.370;10.930;2022-11-15T11:09:59;115.88;;;58.00;;
13255;SDS011;37913;48.370;10.930;2022-11-15T11:12:27;100.13;;;52.92;;
13255;SDS011;37913;48.370;10.930;2022-11-15T11:14:57;101.00;;;51.92;;
13255;SDS011;37913;48.370;10.930;2022-11-15T11:17:29;92.28;;;48.40;;
13255;SDS011;37913;48.370;10.930;2022-11-15T11:20:16;91.32;;;48.38;;
13255;SDS011;37913;48.370;10.930;2022-11-15T11:22:52;90.45;;;47.22;;
13255;SDS011;37913;48.370;10.930;2022-11-15T11:25:32;94.47;;;47.47;;
13255;SDS011;37913;48.370;10.930;2022-11-15T11:28:05;91.25;;;45.45;;
13255;SDS011;37913;48.370;10.930;2022-11-15T11:30:57;93.78;;;45.78;;
13255;SDS011;37913;48.370;10.930;2022-11-15T11:33:33;90.78;;;44.38;;
13255;SDS011;37913;48.370;10.930;2022-11-15T11:36:15;77.65;;;41.67;;
13255;SDS011;37913;48.370;10.930;2022-11-15T11:38:53;91.07;;;43.20;;
13255;SDS011;37913;48.370;10.930;2022-11-15T11:41:29;96.22;;;44.20;;
13255;SDS011;37913;48.370;10.930;2022-11-15T11:44:15;101.05;;;44.40;;
13255;SDS011;37913;48.370;10.930;2022-11-15T11:46:53;112.88;;;47.50;;
13255;SDS011;37913;48.370;10.930;2022-11-15T11:49:28;79.35;;;39.53;;
13255;SDS011;37913;48.370;10.930;2022-11-15T11:52:01;90.47;;;41.70;;
13255;SDS011;37913;48.370;10.930;2022-11-15T11:54:37;90.63;;;41.88;;
13255;SDS011;37913;48.370;10.930;2022-11-15T11:57:10;92.57;;;43.22;;
13255;SDS011;37913;48.370;10.930;2022-11-15T11:59:44;89.90;;;41.92;;
13255;SDS011;37913;48.370;10.930;2022-11-15T12:02:18;89.22;;;42.08;;
13255;SDS011;37913;48.370;10.930;2022-11-15T12:04:56;103.18;;;44.15;;
13255;SDS011;37913;48.370;10.930;2022-11-15T12:07:29;88.05;;;42.38;;
13255;SDS011;37913;48.370;10.930;2022-11-15T12:10:01;80.63;;;42.15;;
13255;SDS011;37913;48.370;10.930;2022-11-15T12:12:35;94.28;;;44.38;;
13255;SDS011;37913;48.370;10.930;2022-11-15T12:15:10;96.97;;;48.38;;
13255;SDS011;37913;48.370;10.930;2022-11-15T12:17:41;93.40;;;49.50;;
13255;SDS011;37913;48.370;10.930;2022-11-15T12:20:15;116.25;;;57.67;;
13255;SDS011;37913;48.370;10.930;2022-11-15T12:22:46;104.75;;;57.42;;
13255;SDS011;37913;48.370;10.930;2022-11-15T12:25:19;86.22;;;56.22;;
13255;SDS011;37913;48.370;10.930;2022-11-15T12:27:50;107.05;;;63.10;;
13255;SDS011;37913;48.370;10.930;2022-11-15T12:30:21;94.72;;;65.88;;
13255;SDS011;37913;48.370;10.930;2022-11-15T12:32:50;105.93;;;71.25;;
13255;SDS011;37913;48.370;10.930;2022-11-15T12:35:23;104.72;;;75.88;;
13255;SDS011;37913;48.370;10.930;2022-11-15T12:37:53;101.43;;;76.88;;
13255;SDS011;37913;48.370;10.930;2022-11-15T12:40:34;113.97;;;83.03;;
13255;SDS011;37913;48.370;10.930;2022-11-15T12:46:05;109.03;;;88.22;;
13255;SDS011;37913;48.370;10.930;2022-11-15T12:57:30;105.07;;;86.88;;
13255;SDS011;37913;48.370;10.930;2022-11-15T13:03:24;115.18;;;88.60;;
13255;SDS011;37913;48.370;10.930;2022-11-15T13:06:03;99.40;;;83.32;;
13255;SDS011;37913;48.370;10.930;2022-11-15T13:08:42;113.95;;;86.88;;
13255;SDS011;37913;48.370;10.930;2022-11-15T13:14:38;105.60;;;86.45;;
13255;SDS011;37913;48.370;10.930;2022-11-15T13:17:12;118.00;;;87.20;;
13255;SDS011;37913;48.370;10.930;2022-11-15T13:19:53;100.68;;;77.35;;
13255;SDS011;37913;48.370;10.930;2022-11-15T13:22:26;96.47;;;73.90;;
13255;SDS011;37913;48.370;10.930;2022-11-15T13:25:18;100.72;;;73.03;;
13255;SDS011;37913;48.370;10.930;2022-11-15T13:28:02;99.90;;;72.68;;
13255;SDS011;37913;48.370;10.930;2022-11-15T13:30:37;101.70;;;73.53;;
13255;SDS011;37913;48.370;10.930;2022-11-15T13:33:07;98.75;;;72.93;;
13255;SDS011;37913;48.370;10.930;2022-11-15T13:35:39;99.88;;;72.93;;
13255;SDS011;37913;48.370;10.930;2022-11-15T13:38:15;92.50;;;70.35;;
13255;SDS011;37913;48.370;10.930;2022-11-15T13:40:45;99.30;;;73.10;;
13255;SDS011;37913;48.370;10.930;2022-11-15T13:43:17;107.28;;;76.35;;
13255;SDS011;37913;48.370;10.930;2022-11-15T13:48:37;93.35;;;63.42;;
13255;SDS011;37913;48.370;10.930;2022-11-15T13:51:06;87.80;;;57.33;;
13255;SDS011;37913;48.370;10.930;2022-11-15T13:53:39;92.25;;;56.85;;
13255;SDS011;37913;48.370;10.930;2022-11-15T13:56:11;84.38;;;53.30;;
13255;SDS011;37913;48.370;10.930;2022-11-15T13:58:40;90.45;;;52.20;;
13255;SDS011;37913;48.370;10.930;2022-11-15T14:01:11;92.18;;;51.60;;
13255;SDS011;37913;48.370;10.930;2022-11-15T14:03:46;92.50;;;49.90;;
13255;SDS011;37913;48.370;10.930;2022-11-15T14:06:16;89.68;;;47.65;;
13255;SDS011;37913;48.370;10.930;2022-11-15T14:08:57;94.47;;;49.15;;
13255;SDS011;37913;48.370;10.930;2022-11-15T14:11:49;94.07;;;47.22;;
13255;SDS011;37913;48.370;10.930;2022-11-15T14:14:19;93.93;;;48.53;;
13255;SDS011;37913;48.370;10.930;2022-11-15T14:16:48;90.63;;;45.65;;
13255;SDS011;37913;48.370;10.930;2022-11-15T14:19:33;94.82;;;44.58;;
13255;SDS011;37913;48.370;10.930;2022-11-15T14:22:13;99.07;;;44.88;;
13255;SDS011;37913;48.370;10.930;2022-11-15T14:24:42;92.30;;;43.17;;
13255;SDS011;37913;48.370;10.930;2022-11-15T14:27:18;92.40;;;42.63;;
13255;SDS011;37913;48.370;10.930;2022-11-15T14:29:51;95.30;;;43.25;;
13255;SDS011;37913;48.370;10.930;2022-11-15T14:32:19;94.60;;;42.80;;
13255;SDS011;37913;48.370;10.930;2022-11-15T14:34:47;108.72;;;45.53;;
13255;SDS011;37913;48.370;10.930;2022-11-15T14:37:18;93.47;;;42.45;;
13255;SDS011;37913;48.370;10.930;2022-11-15T14:39:47;90.25;;;40.75;;
13255;SDS011;37913;48.370;10.930;2022-11-15T14:42:15;86.35;;;39.97;;
13255;SDS011;37913;48.370;10.930;2022-11-15T14:44:42;86.80;;;40.03;;
13255;SDS011;37913;48.370;10.930;2022-11-15T14:47:10;98.07;;;42.03;;
13255;SDS011;37913;48.370;10.930;2022-11-15T14:49:37;90.20;;;40.15;;
13255;SDS011;37913;48.370;10.930;2022-11-15T14:52:07;90.43;;;39.55;;
13255;SDS011;37913;48.370;10.930;2022-11-15T14:54:42;91.30;;;39.85;;
13255;SDS011;37913;48.370;10.930;2022-11-15T14:57:09;89.57;;;39.65;;
13255;SDS011;37913;48.370;10.930;2022-11-15T14:59:36;87.38;;;39.05;;
13255;SDS011;37913;48.370;10.930;2022-11-15T15:02:07;86.85;;;39.42;;